sensor_id;sensor_type;location;lat;lon;timestamp;P1;durP1;ratioP1;P2;durP2;ratioP2
30934;SDS011;51033;42.648;23.292;2022-10-31T00:01:33;7.03;;;1.60;;
30934;SDS011;51033;42.648;23.292;2022-10-31T00:06:25;4.93;;;1.60;;
30934;SDS011;51033;42.648;23.292;2022-10-31T00:08:58;1.90;;;1.45;;
30934;SDS011;51033;42.648;23.292;2022-10-31T00:11:25;5.93;;;1.70;;
30934;SDS011;51033;42.648;23.292;2022-10-31T00:13:51;2.70;;;1.48;;
30934;SDS011;51033;42.648;23.292;2022-10-31T00:16:17;2.22;;;1.83;;
30934;SDS011;51033;42.648;23.292;2022-10-31T00:18:53;6.82;;;2.15;;
30934;SDS011;51033;42.648;23.292;2022-10-31T00:21:21;3.13;;;1.58;;
30934;SDS011;51033;42.648;23.292;2022-10-31T00:23:47;4.10;;;1.92;;
30934;SDS011;51033;42.648;23.292;2022-10-31T00:26:13;8.18;;;1.90;;
30934;SDS011;51033;42.648;23.292;2022-10-31T00:28:38;3.25;;;1.88;;
30934;SDS011;51033;42.648;23.292;2022-10-31T00:31:05;3.70;;;2.15;;
30934;SDS011;51033;42.648;23.292;2022-10-31T00:33:35;7.80;;;1.92;;
30934;SDS011;51033;42.648;23.292;2022-10-31T00:36:03;2.58;;;1.88;;
30934;SDS011;51033;42.648;23.292;2022-10-31T00:38:29;2.90;;;1.27;;
30934;SDS011;51033;42.648;23.292;2022-10-31T00:40:55;3.35;;;1.80;;
30934;SDS011;51033;42.648;23.292;2022-10-31T00:43:20;5.50;;;1.60;;
30934;SDS011;51033;42.648;23.292;2022-10-31T00:45:46;3.30;;;1.88;;
30934;SDS011;51033;42.648;23.292;2022-10-31T00:48:11;3.97;;;1.80;;
30934;SDS011;51033;42.648;23.292;2022-10-31T00:50:37;6.28;;;1.95;;
30934;SDS011;51033;42.648;23.292;2022-10-31T00:53:03;3.30;;;1.52;;
30934;SDS011;51033;42.648;23.292;2022-10-31T00:55:28;5.18;;;2.20;;
30934;SDS011;51033;42.648;23.292;2022-10-31T00:57:54;3.55;;;1.92;;
30934;SDS011;51033;42.648;23.292;2022-10-31T01:00:19;4.20;;;2.03;;
30934;SDS011;51033;42.648;23.292;2022-10-31T01:02:45;4.85;;;3.13;;
30934;SDS011;51033;42.648;23.292;2022-10-31T01:05:10;3.53;;;1.67;;
30934;SDS011;51033;42.648;23.292;2022-10-31T01:07:36;5.05;;;1.90;;
30934;SDS011;51033;42.648;23.292;2022-10-31T01:10:03;3.00;;;1.48;;
30934;SDS011;51033;42.648;23.292;2022-10-31T01:12:29;1.63;;;1.52;;
30934;SDS011;51033;42.648;23.292;2022-10-31T01:14:54;7.60;;;2.20;;
30934;SDS011;51033;42.648;23.292;2022-10-31T01:17:20;2.63;;;1.88;;
30934;SDS011;51033;42.648;23.292;2022-10-31T01:19:45;3.85;;;2.10;;
30934;SDS011;51033;42.648;23.292;2022-10-31T01:22:10;3.10;;;2.25;;
30934;SDS011;51033;42.648;23.292;2022-10-31T01:24:36;4.88;;;1.90;;
30934;SDS011;51033;42.648;23.292;2022-10-31T01:27:01;3.08;;;1.92;;
30934;SDS011;51033;42.648;23.292;2022-10-31T01:29:28;5.55;;;1.88;;
30934;SDS011;51033;42.648;23.292;2022-10-31T01:31:53;8.25;;;3.15;;
30934;SDS011;51033;42.648;23.292;2022-10-31T01:34:18;3.95;;;2.85;;
30934;SDS011;51033;42.648;23.292;2022-10-31T01:36:44;2.40;;;1.80;;
30934;SDS011;51033;42.648;23.292;2022-10-31T01:39:12;5.47;;;2.55;;
30934;SDS011;51033;42.648;23.292;2022-10-31T01:41:40;3.75;;;2.85;;
30934;SDS011;51033;42.648;23.292;2022-10-31T01:49:34;5.18;;;2.60;;
30934;SDS011;51033;42.648;23.292;2022-10-31T01:52:09;6.65;;;2.70;;
30934;SDS011;51033;42.648;23.292;2022-10-31T01:55:09;4.18;;;2.20;;
30934;SDS011;51033;42.648;23.292;2022-10-31T01:57:37;4.57;;;2.45;;
30934;SDS011;51033;42.648;23.292;2022-10-31T02:00:06;4.60;;;2.03;;
30934;SDS011;51033;42.648;23.292;2022-10-31T02:02:33;4.93;;;2.58;;
30934;SDS011;51033;42.648;23.292;2022-10-31T02:04:59;9.35;;;3.22;;
30934;SDS011;51033;42.648;23.292;2022-10-31T02:07:31;6.72;;;2.65;;
30934;SDS011;51033;42.648;23.292;2022-10-31T02:10:02;4.40;;;2.25;;
30934;SDS011;51033;42.648;23.292;2022-10-31T02:12:28;3.50;;;1.85;;
30934;SDS011;51033;42.648;23.292;2022-10-31T02:14:56;4.80;;;2.63;;
30934;SDS011;51033;42.648;23.292;2022-10-31T02:17:22;5.15;;;2.47;;
30934;SDS011;51033;42.648;23.292;2022-10-31T02:19:57;3.45;;;2.33;;
30934;SDS011;51033;42.648;23.292;2022-10-31T02:22:32;4.75;;;2.35;;
30934;SDS011;51033;42.648;23.292;2022-10-31T02:25:22;2.97;;;2.15;;
30934;SDS011;51033;42.648;23.292;2022-10-31T02:33:36;7.72;;;3.22;;
30934;SDS011;51033;42.648;23.292;2022-10-31T02:36:17;3.05;;;2.75;;
30934;SDS011;51033;42.648;23.292;2022-10-31T02:39:01;3.90;;;2.33;;
30934;SDS011;51033;42.648;23.292;2022-10-31T02:41:40;5.28;;;2.72;;
30934;SDS011;51033;42.648;23.292;2022-10-31T02:47:05;4.28;;;2.22;;
30934;SDS011;51033;42.648;23.292;2022-10-31T02:52:14;5.78;;;2.70;;
30934;SDS011;51033;42.648;23.292;2022-10-31T02:54:43;5.22;;;3.03;;
30934;SDS011;51033;42.648;23.292;2022-10-31T02:57:10;3.35;;;2.25;;
30934;SDS011;51033;42.648;23.292;2022-10-31T02:59:36;6.70;;;3.50;;
30934;SDS011;51033;42.648;23.292;2022-10-31T03:02:09;3.75;;;2.58;;
30934;SDS011;51033;42.648;23.292;2022-10-31T03:05:01;3.42;;;2.80;;
30934;SDS011;51033;42.648;23.292;2022-10-31T03:10:52;4.75;;;3.25;;
30934;SDS011;51033;42.648;23.292;2022-10-31T03:13:29;7.50;;;2.92;;
30934;SDS011;51033;42.648;23.292;2022-10-31T03:16:14;3.58;;;2.83;;
30934;SDS011;51033;42.648;23.292;2022-10-31T03:18:45;4.82;;;2.85;;
30934;SDS011;51033;42.648;23.292;2022-10-31T03:21:22;3.17;;;2.63;;
30934;SDS011;51033;42.648;23.292;2022-10-31T03:23:54;5.35;;;2.97;;
30934;SDS011;51033;42.648;23.292;2022-10-31T03:26:22;3.92;;;3.28;;
30934;SDS011;51033;42.648;23.292;2022-10-31T03:28:54;6.50;;;3.03;;
30934;SDS011;51033;42.648;23.292;2022-10-31T03:31:25;5.75;;;3.08;;
30934;SDS011;51033;42.648;23.292;2022-10-31T03:33:56;4.75;;;3.10;;
30934;SDS011;51033;42.648;23.292;2022-10-31T03:36:24;4.95;;;3.30;;
30934;SDS011;51033;42.648;23.292;2022-10-31T03:38:52;6.57;;;2.80;;
30934;SDS011;51033;42.648;23.292;2022-10-31T03:41:19;4.22;;;2.60;;
30934;SDS011;51033;42.648;23.292;2022-10-31T03:43:57;7.80;;;2.67;;
30934;SDS011;51033;42.648;23.292;2022-10-31T03:46:27;5.20;;;2.83;;
30934;SDS011;51033;42.648;23.292;2022-10-31T03:48:52;5.72;;;2.55;;
30934;SDS011;51033;42.648;23.292;2022-10-31T03:51:22;3.20;;;2.40;;
30934;SDS011;51033;42.648;23.292;2022-10-31T03:53:55;5.53;;;3.13;;
30934;SDS011;51033;42.648;23.292;2022-10-31T03:56:37;5.10;;;2.60;;
30934;SDS011;51033;42.648;23.292;2022-10-31T03:59:24;3.95;;;2.63;;
30934;SDS011;51033;42.648;23.292;2022-10-31T04:01:57;5.00;;;3.28;;
30934;SDS011;51033;42.648;23.292;2022-10-31T04:04:27;5.32;;;3.25;;
30934;SDS011;51033;42.648;23.292;2022-10-31T04:06:54;7.72;;;3.95;;
30934;SDS011;51033;42.648;23.292;2022-10-31T04:09:22;5.40;;;3.00;;
30934;SDS011;51033;42.648;23.292;2022-10-31T04:11:51;4.38;;;3.17;;
30934;SDS011;51033;42.648;23.292;2022-10-31T04:14:19;5.65;;;3.53;;
30934;SDS011;51033;42.648;23.292;2022-10-31T04:16:47;5.18;;;3.00;;
30934;SDS011;51033;42.648;23.292;2022-10-31T04:19:12;5.28;;;3.35;;
30934;SDS011;51033;42.648;23.292;2022-10-31T04:21:38;6.63;;;4.00;;
30934;SDS011;51033;42.648;23.292;2022-10-31T04:24:03;8.07;;;3.50;;
30934;SDS011;51033;42.648;23.292;2022-10-31T04:26:29;9.35;;;4.65;;
30934;SDS011;51033;42.648;23.292;2022-10-31T04:28:54;10.07;;;5.32;;
30934;SDS011;51033;42.648;23.292;2022-10-31T04:31:20;15.68;;;5.88;;
30934;SDS011;51033;42.648;23.292;2022-10-31T04:33:45;20.33;;;9.00;;
30934;SDS011;51033;42.648;23.292;2022-10-31T04:36:11;17.77;;;7.45;;
30934;SDS011;51033;42.648;23.292;2022-10-31T04:38:36;30.38;;;9.10;;
30934;SDS011;51033;42.648;23.292;2022-10-31T04:41:02;16.17;;;7.25;;
30934;SDS011;51033;42.648;23.292;2022-10-31T04:43:30;14.82;;;7.65;;
30934;SDS011;51033;42.648;23.292;2022-10-31T04:45:55;11.80;;;6.35;;
30934;SDS011;51033;42.648;23.292;2022-10-31T04:48:20;9.18;;;4.85;;
30934;SDS011;51033;42.648;23.292;2022-10-31T04:50:46;12.60;;;4.32;;
30934;SDS011;51033;42.648;23.292;2022-10-31T04:53:11;11.75;;;5.72;;
30934;SDS011;51033;42.648;23.292;2022-10-31T04:55:36;12.05;;;5.75;;
30934;SDS011;51033;42.648;23.292;2022-10-31T04:58:02;15.98;;;4.47;;
30934;SDS011;51033;42.648;23.292;2022-10-31T05:00:27;9.10;;;5.05;;
30934;SDS011;51033;42.648;23.292;2022-10-31T05:02:54;15.30;;;6.00;;
30934;SDS011;51033;42.648;23.292;2022-10-31T05:05:22;12.57;;;7.00;;
30934;SDS011;51033;42.648;23.292;2022-10-31T05:07:51;11.38;;;5.55;;
30934;SDS011;51033;42.648;23.292;2022-10-31T05:10:18;12.50;;;5.00;;
30934;SDS011;51033;42.648;23.292;2022-10-31T05:12:45;12.80;;;5.38;;
30934;SDS011;51033;42.648;23.292;2022-10-31T05:15:12;11.00;;;5.00;;
30934;SDS011;51033;42.648;23.292;2022-10-31T05:17:38;7.45;;;4.65;;
30934;SDS011;51033;42.648;23.292;2022-10-31T05:20:03;7.82;;;4.38;;
30934;SDS011;51033;42.648;23.292;2022-10-31T05:22:29;12.68;;;4.68;;
30934;SDS011;51033;42.648;23.292;2022-10-31T05:24:55;8.27;;;4.55;;
30934;SDS011;51033;42.648;23.292;2022-10-31T05:27:20;8.35;;;5.82;;
30934;SDS011;51033;42.648;23.292;2022-10-31T05:29:46;8.02;;;4.97;;
30934;SDS011;51033;42.648;23.292;2022-10-31T05:32:11;10.20;;;5.18;;
30934;SDS011;51033;42.648;23.292;2022-10-31T05:34:36;7.57;;;4.65;;
30934;SDS011;51033;42.648;23.292;2022-10-31T05:37:02;8.20;;;3.67;;
30934;SDS011;51033;42.648;23.292;2022-10-31T05:39:27;8.48;;;4.50;;
30934;SDS011;51033;42.648;23.292;2022-10-31T05:41:52;9.77;;;6.03;;
30934;SDS011;51033;42.648;23.292;2022-10-31T05:44:18;8.10;;;4.40;;
30934;SDS011;51033;42.648;23.292;2022-10-31T05:46:43;11.27;;;5.45;;
30934;SDS011;51033;42.648;23.292;2022-10-31T05:49:11;8.73;;;5.10;;
30934;SDS011;51033;42.648;23.292;2022-10-31T05:51:36;7.78;;;5.03;;
30934;SDS011;51033;42.648;23.292;2022-10-31T05:54:02;11.77;;;6.38;;
30934;SDS011;51033;42.648;23.292;2022-10-31T05:56:27;12.00;;;5.63;;
30934;SDS011;51033;42.648;23.292;2022-10-31T05:58:52;9.10;;;5.80;;
30934;SDS011;51033;42.648;23.292;2022-10-31T06:01:18;10.85;;;5.53;;
30934;SDS011;51033;42.648;23.292;2022-10-31T06:03:43;15.02;;;5.90;;
30934;SDS011;51033;42.648;23.292;2022-10-31T06:06:08;11.32;;;6.05;;
30934;SDS011;51033;42.648;23.292;2022-10-31T06:08:34;13.88;;;6.45;;
30934;SDS011;51033;42.648;23.292;2022-10-31T06:10:59;14.82;;;7.18;;
30934;SDS011;51033;42.648;23.292;2022-10-31T06:13:24;8.40;;;6.63;;
30934;SDS011;51033;42.648;23.292;2022-10-31T06:15:50;17.48;;;7.75;;
30934;SDS011;51033;42.648;23.292;2022-10-31T06:18:15;13.60;;;7.28;;
30934;SDS011;51033;42.648;23.292;2022-10-31T06:20:41;12.20;;;6.35;;
30934;SDS011;51033;42.648;23.292;2022-10-31T06:23:06;11.82;;;7.50;;
30934;SDS011;51033;42.648;23.292;2022-10-31T06:25:31;13.13;;;6.50;;
30934;SDS011;51033;42.648;23.292;2022-10-31T06:27:58;12.70;;;7.10;;
30934;SDS011;51033;42.648;23.292;2022-10-31T06:30:24;20.45;;;10.73;;
30934;SDS011;51033;42.648;23.292;2022-10-31T06:32:49;14.30;;;7.40;;
30934;SDS011;51033;42.648;23.292;2022-10-31T06:35:15;12.57;;;8.40;;
30934;SDS011;51033;42.648;23.292;2022-10-31T06:37:40;18.40;;;8.60;;
30934;SDS011;51033;42.648;23.292;2022-10-31T06:40:06;16.83;;;8.50;;
30934;SDS011;51033;42.648;23.292;2022-10-31T06:42:32;13.60;;;9.38;;
30934;SDS011;51033;42.648;23.292;2022-10-31T06:44:57;15.00;;;8.40;;
30934;SDS011;51033;42.648;23.292;2022-10-31T06:47:22;14.73;;;8.60;;
30934;SDS011;51033;42.648;23.292;2022-10-31T06:49:48;16.92;;;9.15;;
30934;SDS011;51033;42.648;23.292;2022-10-31T06:52:13;15.63;;;9.18;;
30934;SDS011;51033;42.648;23.292;2022-10-31T06:54:39;16.55;;;8.82;;
30934;SDS011;51033;42.648;23.292;2022-10-31T06:57:04;16.33;;;8.77;;
30934;SDS011;51033;42.648;23.292;2022-10-31T06:59:29;17.58;;;8.80;;
30934;SDS011;51033;42.648;23.292;2022-10-31T07:01:55;16.25;;;9.65;;
30934;SDS011;51033;42.648;23.292;2022-10-31T07:04:22;20.73;;;9.30;;
30934;SDS011;51033;42.648;23.292;2022-10-31T07:06:49;15.27;;;9.95;;
30934;SDS011;51033;42.648;23.292;2022-10-31T07:09:15;16.67;;;9.48;;
30934;SDS011;51033;42.648;23.292;2022-10-31T07:11:41;16.90;;;9.18;;
30934;SDS011;51033;42.648;23.292;2022-10-31T07:14:06;17.45;;;9.88;;
30934;SDS011;51033;42.648;23.292;2022-10-31T07:16:31;16.60;;;9.75;;
30934;SDS011;51033;42.648;23.292;2022-10-31T07:18:57;15.02;;;9.65;;
30934;SDS011;51033;42.648;23.292;2022-10-31T07:21:22;13.18;;;9.27;;
30934;SDS011;51033;42.648;23.292;2022-10-31T07:23:48;17.65;;;10.48;;
30934;SDS011;51033;42.648;23.292;2022-10-31T07:26:14;15.57;;;10.57;;
30934;SDS011;51033;42.648;23.292;2022-10-31T07:28:39;17.38;;;10.23;;
30934;SDS011;51033;42.648;23.292;2022-10-31T07:31:04;17.38;;;10.02;;
30934;SDS011;51033;42.648;23.292;2022-10-31T07:33:30;16.33;;;10.45;;
30934;SDS011;51033;42.648;23.292;2022-10-31T07:35:55;20.55;;;9.48;;
30934;SDS011;51033;42.648;23.292;2022-10-31T07:38:21;15.25;;;10.10;;
30934;SDS011;51033;42.648;23.292;2022-10-31T07:40:49;16.88;;;11.23;;
30934;SDS011;51033;42.648;23.292;2022-10-31T07:43:16;14.15;;;9.85;;
30934;SDS011;51033;42.648;23.292;2022-10-31T07:45:41;23.40;;;11.35;;
30934;SDS011;51033;42.648;23.292;2022-10-31T07:48:08;20.30;;;12.25;;
30934;SDS011;51033;42.648;23.292;2022-10-31T07:50:33;18.20;;;10.43;;
30934;SDS011;51033;42.648;23.292;2022-10-31T07:52:59;18.83;;;10.27;;
30934;SDS011;51033;42.648;23.292;2022-10-31T07:55:29;18.75;;;11.68;;
30934;SDS011;51033;42.648;23.292;2022-10-31T07:58:16;13.98;;;10.35;;
30934;SDS011;51033;42.648;23.292;2022-10-31T08:00:42;17.10;;;10.85;;
30934;SDS011;51033;42.648;23.292;2022-10-31T08:03:10;19.92;;;10.82;;
30934;SDS011;51033;42.648;23.292;2022-10-31T08:05:37;16.55;;;10.77;;
30934;SDS011;51033;42.648;23.292;2022-10-31T08:08:03;20.63;;;11.18;;
30934;SDS011;51033;42.648;23.292;2022-10-31T08:10:30;17.15;;;10.70;;
30934;SDS011;51033;42.648;23.292;2022-10-31T08:13:00;17.80;;;10.52;;
30934;SDS011;51033;42.648;23.292;2022-10-31T08:15:27;14.02;;;9.82;;
30934;SDS011;51033;42.648;23.292;2022-10-31T08:17:53;15.57;;;9.30;;
30934;SDS011;51033;42.648;23.292;2022-10-31T08:20:19;15.43;;;10.15;;
30934;SDS011;51033;42.648;23.292;2022-10-31T08:22:52;17.10;;;11.30;;
30934;SDS011;51033;42.648;23.292;2022-10-31T08:25:21;16.67;;;10.07;;
30934;SDS011;51033;42.648;23.292;2022-10-31T08:27:48;16.73;;;10.98;;
30934;SDS011;51033;42.648;23.292;2022-10-31T08:30:21;13.18;;;9.15;;
30934;SDS011;51033;42.648;23.292;2022-10-31T08:32:47;22.58;;;10.40;;
30934;SDS011;51033;42.648;23.292;2022-10-31T08:35:23;19.70;;;9.77;;
30934;SDS011;51033;42.648;23.292;2022-10-31T08:37:52;13.07;;;9.48;;
30934;SDS011;51033;42.648;23.292;2022-10-31T08:40:21;15.23;;;9.63;;
30934;SDS011;51033;42.648;23.292;2022-10-31T08:42:47;14.85;;;9.52;;
30934;SDS011;51033;42.648;23.292;2022-10-31T08:45:12;16.00;;;10.75;;
30934;SDS011;51033;42.648;23.292;2022-10-31T08:47:37;12.25;;;8.57;;
30934;SDS011;51033;42.648;23.292;2022-10-31T08:50:03;12.70;;;9.02;;
30934;SDS011;51033;42.648;23.292;2022-10-31T08:52:29;16.52;;;9.45;;
30934;SDS011;51033;42.648;23.292;2022-10-31T08:54:54;12.93;;;7.65;;
30934;SDS011;51033;42.648;23.292;2022-10-31T08:57:19;14.20;;;7.15;;
30934;SDS011;51033;42.648;23.292;2022-10-31T08:59:45;12.77;;;7.55;;
30934;SDS011;51033;42.648;23.292;2022-10-31T09:02:10;10.27;;;7.18;;
30934;SDS011;51033;42.648;23.292;2022-10-31T09:04:36;13.32;;;7.45;;
30934;SDS011;51033;42.648;23.292;2022-10-31T09:07:01;13.13;;;7.95;;
30934;SDS011;51033;42.648;23.292;2022-10-31T09:09:26;10.98;;;6.78;;
30934;SDS011;51033;42.648;23.292;2022-10-31T09:11:52;10.25;;;6.82;;
30934;SDS011;51033;42.648;23.292;2022-10-31T09:14:17;11.18;;;6.68;;
30934;SDS011;51033;42.648;23.292;2022-10-31T09:16:42;12.82;;;7.18;;
30934;SDS011;51033;42.648;23.292;2022-10-31T09:19:08;10.93;;;7.15;;
30934;SDS011;51033;42.648;23.292;2022-10-31T09:21:33;18.00;;;7.57;;
30934;SDS011;51033;42.648;23.292;2022-10-31T09:23:58;12.38;;;7.20;;
30934;SDS011;51033;42.648;23.292;2022-10-31T09:26:24;11.13;;;6.20;;
30934;SDS011;51033;42.648;23.292;2022-10-31T09:28:49;12.48;;;6.93;;
30934;SDS011;51033;42.648;23.292;2022-10-31T09:31:14;11.85;;;6.75;;
30934;SDS011;51033;42.648;23.292;2022-10-31T09:33:40;12.93;;;6.22;;
30934;SDS011;51033;42.648;23.292;2022-10-31T09:36:07;16.23;;;6.25;;
30934;SDS011;51033;42.648;23.292;2022-10-31T09:38:32;11.85;;;6.25;;
30934;SDS011;51033;42.648;23.292;2022-10-31T09:46:53;12.13;;;6.05;;
30934;SDS011;51033;42.648;23.292;2022-10-31T09:51:33;9.93;;;5.38;;
30934;SDS011;51033;42.648;23.292;2022-10-31T09:56:27;11.55;;;6.00;;
30934;SDS011;51033;42.648;23.292;2022-10-31T09:58:56;12.70;;;7.57;;
30934;SDS011;51033;42.648;23.292;2022-10-31T10:01:28;7.72;;;5.35;;
30934;SDS011;51033;42.648;23.292;2022-10-31T10:04:05;9.82;;;4.35;;
30934;SDS011;51033;42.648;23.292;2022-10-31T10:06:44;11.45;;;4.20;;
30934;SDS011;51033;42.648;23.292;2022-10-31T10:09:13;10.93;;;5.57;;
30934;SDS011;51033;42.648;23.292;2022-10-31T10:22:09;8.82;;;3.17;;
30934;SDS011;51033;42.648;23.292;2022-10-31T10:30:18;6.50;;;3.22;;
30934;SDS011;51033;42.648;23.292;2022-10-31T10:35:29;7.32;;;2.88;;
30934;SDS011;51033;42.648;23.292;2022-10-31T10:37:56;6.22;;;2.47;;
30934;SDS011;51033;42.648;23.292;2022-10-31T10:40:27;2.80;;;1.80;;
30934;SDS011;51033;42.648;23.292;2022-10-31T10:42:56;2.88;;;2.03;;
30934;SDS011;51033;42.648;23.292;2022-10-31T10:45:47;7.28;;;2.00;;
30934;SDS011;51033;42.648;23.292;2022-10-31T10:48:54;4.22;;;2.45;;
30934;SDS011;51033;42.648;23.292;2022-10-31T10:59:34;9.73;;;2.17;;
30934;SDS011;51033;42.648;23.292;2022-10-31T11:02:00;5.00;;;2.25;;
30934;SDS011;51033;42.648;23.292;2022-10-31T11:04:33;2.25;;;1.33;;
30934;SDS011;51033;42.648;23.292;2022-10-31T11:07:01;4.60;;;1.73;;
30934;SDS011;51033;42.648;23.292;2022-10-31T11:09:33;2.80;;;1.33;;
30934;SDS011;51033;42.648;23.292;2022-10-31T11:11:59;4.25;;;1.73;;
30934;SDS011;51033;42.648;23.292;2022-10-31T11:14:33;2.38;;;1.42;;
30934;SDS011;51033;42.648;23.292;2022-10-31T11:22:39;12.82;;;2.03;;
30934;SDS011;51033;42.648;23.292;2022-10-31T11:27:44;4.28;;;1.83;;
30934;SDS011;51033;42.648;23.292;2022-10-31T11:30:11;2.95;;;1.45;;
30934;SDS011;51033;42.648;23.292;2022-10-31T11:32:39;3.90;;;1.50;;
30934;SDS011;51033;42.648;23.292;2022-10-31T11:35:11;4.40;;;1.80;;
30934;SDS011;51033;42.648;23.292;2022-10-31T11:37:43;9.25;;;4.15;;
30934;SDS011;51033;42.648;23.292;2022-10-31T11:42:44;3.35;;;1.88;;
30934;SDS011;51033;42.648;23.292;2022-10-31T11:45:15;3.45;;;1.67;;
30934;SDS011;51033;42.648;23.292;2022-10-31T11:47:52;4.05;;;1.70;;
30934;SDS011;51033;42.648;23.292;2022-10-31T11:50:21;5.30;;;2.53;;
30934;SDS011;51033;42.648;23.292;2022-10-31T11:52:49;6.25;;;2.20;;
30934;SDS011;51033;42.648;23.292;2022-10-31T11:55:17;2.85;;;1.73;;
30934;SDS011;51033;42.648;23.292;2022-10-31T11:57:56;3.08;;;1.67;;
30934;SDS011;51033;42.648;23.292;2022-10-31T12:05:45;6.75;;;2.05;;
30934;SDS011;51033;42.648;23.292;2022-10-31T12:08:15;3.58;;;1.92;;
30934;SDS011;51033;42.648;23.292;2022-10-31T12:13:35;6.40;;;2.45;;
30934;SDS011;51033;42.648;23.292;2022-10-31T12:21:49;9.60;;;2.28;;
30934;SDS011;51033;42.648;23.292;2022-10-31T12:30:11;4.93;;;2.05;;
30934;SDS011;51033;42.648;23.292;2022-10-31T12:35:57;3.80;;;2.13;;
30934;SDS011;51033;42.648;23.292;2022-10-31T12:38:42;3.92;;;2.25;;
30934;SDS011;51033;42.648;23.292;2022-10-31T12:41:23;4.05;;;2.67;;
30934;SDS011;51033;42.648;23.292;2022-10-31T12:44:06;3.70;;;1.80;;
30934;SDS011;51033;42.648;23.292;2022-10-31T12:51:48;4.90;;;2.03;;
30934;SDS011;51033;42.648;23.292;2022-10-31T12:54:22;5.47;;;2.08;;
30934;SDS011;51033;42.648;23.292;2022-10-31T13:00:12;4.30;;;2.25;;
30934;SDS011;51033;42.648;23.292;2022-10-31T13:05:43;7.47;;;2.47;;
30934;SDS011;51033;42.648;23.292;2022-10-31T13:10:41;6.40;;;2.97;;
30934;SDS011;51033;42.648;23.292;2022-10-31T13:13:21;2.50;;;1.73;;
30934;SDS011;51033;42.648;23.292;2022-10-31T13:15:53;5.63;;;2.20;;
30934;SDS011;51033;42.648;23.292;2022-10-31T13:18:27;4.03;;;2.85;;
30934;SDS011;51033;42.648;23.292;2022-10-31T13:20:57;7.68;;;2.60;;
30934;SDS011;51033;42.648;23.292;2022-10-31T13:23:29;3.92;;;2.00;;
30934;SDS011;51033;42.648;23.292;2022-10-31T13:25:57;8.23;;;2.00;;
30934;SDS011;51033;42.648;23.292;2022-10-31T13:28:43;6.00;;;2.03;;
30934;SDS011;51033;42.648;23.292;2022-10-31T13:31:12;7.80;;;1.88;;
30934;SDS011;51033;42.648;23.292;2022-10-31T13:33:39;6.43;;;2.22;;
30934;SDS011;51033;42.648;23.292;2022-10-31T13:39:01;5.40;;;1.77;;
30934;SDS011;51033;42.648;23.292;2022-10-31T13:41:48;8.02;;;2.25;;
30934;SDS011;51033;42.648;23.292;2022-10-31T13:46:49;5.30;;;2.60;;
30934;SDS011;51033;42.648;23.292;2022-10-31T13:52:05;6.10;;;1.77;;
30934;SDS011;51033;42.648;23.292;2022-10-31T13:54:46;5.88;;;2.38;;
30934;SDS011;51033;42.648;23.292;2022-10-31T13:59:58;6.72;;;2.15;;
30934;SDS011;51033;42.648;23.292;2022-10-31T14:02:27;3.80;;;2.33;;
30934;SDS011;51033;42.648;23.292;2022-10-31T14:05:03;15.57;;;3.83;;
30934;SDS011;51033;42.648;23.292;2022-10-31T14:07:31;9.73;;;2.47;;
30934;SDS011;51033;42.648;23.292;2022-10-31T14:12:44;19.02;;;4.57;;
30934;SDS011;51033;42.648;23.292;2022-10-31T14:17:56;8.82;;;1.80;;
30934;SDS011;51033;42.648;23.292;2022-10-31T14:20:39;5.60;;;2.17;;
30934;SDS011;51033;42.648;23.292;2022-10-31T14:25:53;9.88;;;1.83;;
30934;SDS011;51033;42.648;23.292;2022-10-31T14:28:30;13.27;;;2.38;;
30934;SDS011;51033;42.648;23.292;2022-10-31T14:30:58;13.15;;;4.22;;
30934;SDS011;51033;42.648;23.292;2022-10-31T14:33:25;21.77;;;3.13;;
30934;SDS011;51033;42.648;23.292;2022-10-31T14:36:15;12.18;;;2.28;;
30934;SDS011;51033;42.648;23.292;2022-10-31T14:39:02;17.30;;;3.40;;
30934;SDS011;51033;42.648;23.292;2022-10-31T14:44:37;11.05;;;3.28;;
30934;SDS011;51033;42.648;23.292;2022-10-31T14:52:01;6.28;;;2.17;;
30934;SDS011;51033;42.648;23.292;2022-10-31T14:54:34;7.75;;;2.83;;
30934;SDS011;51033;42.648;23.292;2022-10-31T14:57:06;4.80;;;2.88;;
30934;SDS011;51033;42.648;23.292;2022-10-31T14:59:38;5.83;;;2.80;;
30934;SDS011;51033;42.648;23.292;2022-10-31T15:05:19;3.97;;;2.13;;
30934;SDS011;51033;42.648;23.292;2022-10-31T15:07:50;7.20;;;2.00;;
30934;SDS011;51033;42.648;23.292;2022-10-31T15:10:30;5.90;;;2.38;;
30934;SDS011;51033;42.648;23.292;2022-10-31T15:15:54;8.87;;;2.00;;
30934;SDS011;51033;42.648;23.292;2022-10-31T15:18:24;11.55;;;2.13;;
30934;SDS011;51033;42.648;23.292;2022-10-31T15:20:52;17.65;;;2.60;;
30934;SDS011;51033;42.648;23.292;2022-10-31T15:23:28;10.35;;;2.88;;
30934;SDS011;51033;42.648;23.292;2022-10-31T15:25:59;3.08;;;1.98;;
30934;SDS011;51033;42.648;23.292;2022-10-31T15:28:25;3.22;;;2.28;;
30934;SDS011;51033;42.648;23.292;2022-10-31T15:30:52;4.50;;;1.90;;
30934;SDS011;51033;42.648;23.292;2022-10-31T15:33:20;4.53;;;1.90;;
30934;SDS011;51033;42.648;23.292;2022-10-31T15:36:00;4.40;;;2.00;;
30934;SDS011;51033;42.648;23.292;2022-10-31T15:38:26;7.80;;;2.60;;
30934;SDS011;51033;42.648;23.292;2022-10-31T15:40:54;5.03;;;1.70;;
30934;SDS011;51033;42.648;23.292;2022-10-31T15:43:23;7.47;;;1.92;;
30934;SDS011;51033;42.648;23.292;2022-10-31T15:45:49;4.72;;;2.45;;
30934;SDS011;51033;42.648;23.292;2022-10-31T15:50:48;4.95;;;2.50;;
30934;SDS011;51033;42.648;23.292;2022-10-31T15:53:18;9.48;;;3.00;;
30934;SDS011;51033;42.648;23.292;2022-10-31T15:55:51;7.63;;;2.85;;
30934;SDS011;51033;42.648;23.292;2022-10-31T15:58:22;4.10;;;2.00;;
30934;SDS011;51033;42.648;23.292;2022-10-31T16:00:58;1.75;;;1.38;;
30934;SDS011;51033;42.648;23.292;2022-10-31T16:03:26;4.18;;;1.40;;
30934;SDS011;51033;42.648;23.292;2022-10-31T16:05:58;6.30;;;1.50;;
30934;SDS011;51033;42.648;23.292;2022-10-31T16:13:32;5.68;;;1.67;;
30934;SDS011;51033;42.648;23.292;2022-10-31T16:16:00;11.13;;;3.22;;
30934;SDS011;51033;42.648;23.292;2022-10-31T16:18:28;5.65;;;1.70;;
30934;SDS011;51033;42.648;23.292;2022-10-31T16:20:59;5.85;;;1.85;;
30934;SDS011;51033;42.648;23.292;2022-10-31T16:23:25;4.07;;;1.85;;
30934;SDS011;51033;42.648;23.292;2022-10-31T16:25:52;7.32;;;2.15;;
30934;SDS011;51033;42.648;23.292;2022-10-31T16:28:22;11.50;;;2.20;;
30934;SDS011;51033;42.648;23.292;2022-10-31T16:30:52;4.55;;;1.20;;
30934;SDS011;51033;42.648;23.292;2022-10-31T16:36:01;5.47;;;1.38;;
30934;SDS011;51033;42.648;23.292;2022-10-31T16:38:45;3.37;;;1.57;;
30934;SDS011;51033;42.648;23.292;2022-10-31T16:41:10;7.18;;;1.27;;
30934;SDS011;51033;42.648;23.292;2022-10-31T16:43:36;5.00;;;1.25;;
30934;SDS011;51033;42.648;23.292;2022-10-31T16:46:01;3.65;;;1.30;;
30934;SDS011;51033;42.648;23.292;2022-10-31T16:48:26;3.58;;;1.65;;
30934;SDS011;51033;42.648;23.292;2022-10-31T16:50:52;3.22;;;1.42;;
30934;SDS011;51033;42.648;23.292;2022-10-31T16:53:18;3.10;;;1.50;;
30934;SDS011;51033;42.648;23.292;2022-10-31T16:55:48;3.35;;;1.45;;
30934;SDS011;51033;42.648;23.292;2022-10-31T16:58:21;3.97;;;1.92;;
30934;SDS011;51033;42.648;23.292;2022-10-31T17:00:49;3.83;;;1.52;;
30934;SDS011;51033;42.648;23.292;2022-10-31T17:03:16;1.88;;;1.33;;
30934;SDS011;51033;42.648;23.292;2022-10-31T17:05:42;3.47;;;1.27;;
30934;SDS011;51033;42.648;23.292;2022-10-31T17:08:07;7.43;;;1.52;;
30934;SDS011;51033;42.648;23.292;2022-10-31T17:10:33;8.25;;;1.50;;